createdAt,value
2022-10-07T00:00:32.899Z,64.36
2022-10-07T00:03:05.907Z,64.49
2022-10-07T00:05:36.312Z,64.65
2022-10-07T00:08:06.731Z,64.69
2022-10-07T00:10:40.735Z,64.75
2022-10-07T00:13:12.650Z,64.66
2022-10-07T00:15:43.082Z,65.20
2022-10-07T00:18:16.206Z,64.90
2022-10-07T00:20:46.575Z,65.11
2022-10-07T00:23:16.992Z,65.77
2022-10-07T00:25:47.326Z,65.76
2022-10-07T00:28:17.894Z,65.82
2022-10-07T00:30:48.442Z,65.92
2022-10-07T00:33:21.579Z,65.61
2022-10-07T00:35:51.965Z,65.50
2022-10-07T00:38:22.385Z,65.75
2022-10-07T00:40:52.917Z,66.42
2022-10-07T00:43:25.825Z,65.99
2022-10-07T00:46:00.200Z,66.45
2022-10-07T00:48:35.787Z,66.55
2022-10-07T00:51:06.446Z,67.06
2022-10-07T00:53:41.762Z,66.46
2022-10-07T00:56:13.267Z,66.60
2022-10-07T00:58:46.178Z,66.54
2022-10-07T01:01:16.839Z,66.53
2022-10-07T01:03:50.528Z,66.57
2022-10-07T01:06:21.751Z,66.77
2022-10-07T01:08:53.995Z,66.42
2022-10-07T01:11:36.889Z,66.53
2022-10-07T01:14:15.710Z,66.26
2022-10-07T01:16:55.515Z,66.48
2022-10-07T01:19:46.102Z,66.34
2022-10-07T01:22:28.755Z,66.71
2022-10-07T01:25:12.800Z,66.63
2022-10-07T01:27:51.695Z,66.68
2022-10-07T01:30:22.423Z,66.83
2022-10-07T01:32:59.426Z,67.31
2022-10-07T01:35:35.857Z,67.06
2022-10-07T01:38:10.173Z,67.18
2022-10-07T01:40:46.325Z,67.33
2022-10-07T01:43:21.966Z,67.49
2022-10-07T01:45:55.599Z,67.35
2022-10-07T01:48:26.211Z,67.29
2022-10-07T01:50:57.680Z,67.34
2022-10-07T01:53:41.250Z,67.25
2022-10-07T01:56:31.513Z,67.51
2022-10-07T01:59:27.048Z,67.68
2022-10-07T02:02:07.036Z,67.70
2022-10-07T02:04:47.129Z,67.95
2022-10-07T02:07:32.045Z,67.93
2022-10-07T02:10:15.433Z,68.23
2022-10-07T02:12:55.790Z,68.15
2022-10-07T02:15:35.166Z,68.40
2022-10-07T02:18:10.152Z,68.40
2022-10-07T02:20:43.059Z,68.41
2022-10-07T02:23:17.490Z,68.37
2022-10-07T02:25:51.544Z,68.09
2022-10-07T02:28:26.302Z,68.36
2022-10-07T02:31:04.383Z,68.40
2022-10-07T02:33:37.076Z,68.40
2022-10-07T02:36:12.985Z,68.32
2022-10-07T02:38:44.018Z,68.14
2022-10-07T02:41:31.644Z,68.21
2022-10-07T02:44:18.565Z,68.27
2022-10-07T02:46:56.934Z,68.58
2022-10-07T02:49:31.968Z,68.83
2022-10-07T02:52:05.616Z,68.30
2022-10-07T02:54:41.675Z,68.42
2022-10-07T02:57:15.007Z,68.27
2022-10-07T02:59:47.292Z,68.61
2022-10-07T03:02:28.774Z,68.80
2022-10-07T03:05:00.478Z,68.94
2022-10-07T03:07:33.106Z,68.70
2022-10-07T03:10:04.177Z,68.80
2022-10-07T03:12:34.830Z,68.82
2022-10-07T03:15:06.034Z,68.86
2022-10-07T03:17:39.444Z,69.17
2022-10-07T03:20:15.403Z,69.09
2022-10-07T03:22:47.712Z,68.83
2022-10-07T03:25:20.957Z,69.09
2022-10-07T03:27:53.321Z,69.18
2022-10-07T03:30:25.210Z,68.97
2022-10-07T03:32:59.507Z,68.73
2022-10-07T03:35:30.080Z,69.09
2022-10-07T03:38:01.030Z,68.74
2022-10-07T03:40:31.466Z,69.26
2022-10-07T03:43:02.183Z,69.13
2022-10-07T03:45:33.402Z,69.11
2022-10-07T03:48:07.128Z,69.02
2022-10-07T03:50:38.338Z,69.06
2022-10-07T03:53:08.853Z,69.38
2022-10-07T03:55:39.867Z,69.56
2022-10-07T03:58:10.268Z,69.45
2022-10-07T04:00:41.463Z,69.36
2022-10-07T04:03:18.936Z,69.85
2022-10-07T04:06:00.849Z,69.96
2022-10-07T04:08:34.907Z,69.81
2022-10-07T04:11:07.503Z,69.75
2022-10-07T04:13:40.786Z,70.24
2022-10-07T04:16:13.359Z,69.84
2022-10-07T04:18:46.780Z,70.34
2022-10-07T04:21:17.619Z,70.16
2022-10-07T04:23:48.121Z,70.36
2022-10-07T04:26:18.666Z,70.34
2022-10-07T04:28:51.929Z,70.32
2022-10-07T04:31:25.328Z,70.31
2022-10-07T04:34:04.132Z,70.49
2022-10-07T04:36:38.888Z,70.44
2022-10-07T04:39:43.071Z,70.85
2022-10-07T04:42:30.649Z,70.62
2022-10-07T04:45:01.739Z,71.04
2022-10-07T04:47:35.696Z,70.64
2022-10-07T04:50:11.394Z,70.56
2022-10-07T04:52:43.139Z,70.79
2022-10-07T04:55:15.027Z,71.05
2022-10-07T04:57:48.618Z,70.89
2022-10-07T05:00:19.985Z,71.61
2022-10-07T05:02:51.733Z,71.94
2022-10-07T05:05:28.804Z,72.13
2022-10-07T05:07:59.234Z,71.87
2022-10-07T05:10:31.610Z,71.42
2022-10-07T05:13:02.405Z,71.55
2022-10-07T05:15:32.913Z,71.38
2022-10-07T05:18:04.141Z,71.38
2022-10-07T05:20:42.068Z,71.25
2022-10-07T05:23:13.443Z,71.17
2022-10-07T05:25:44.597Z,71.36
2022-10-07T05:28:16.492Z,71.54
2022-10-07T05:30:47.101Z,71.66
2022-10-07T05:33:17.589Z,71.79
2022-10-07T05:35:51.976Z,71.41
2022-10-07T05:38:22.452Z,71.11
2022-10-07T05:40:59.644Z,70.47
2022-10-07T05:43:33.810Z,70.27
2022-10-07T05:46:08.386Z,69.93
2022-10-07T05:48:43.311Z,69.63
2022-10-07T05:51:17.393Z,69.43
2022-10-07T05:53:48.153Z,68.91
2022-10-07T05:56:20.327Z,68.66
2022-10-07T05:58:52.708Z,68.26
2022-10-07T06:01:27.317Z,67.45
2022-10-07T06:03:59.999Z,66.96
2022-10-07T06:06:38.818Z,64.29
2022-10-07T06:09:26.488Z,65.00
2022-10-07T06:12:09.669Z,64.06
2022-10-07T06:14:42.229Z,63.53
2022-10-07T06:17:13.502Z,63.46
2022-10-07T06:19:45.819Z,61.84
2022-10-07T06:22:20.394Z,60.53
2022-10-07T06:24:52.264Z,59.33
2022-10-07T06:27:24.422Z,57.96
2022-10-07T06:29:54.846Z,56.40
2022-10-07T06:32:25.386Z,55.08
2022-10-07T06:34:57.146Z,54.19
2022-10-07T06:37:33.825Z,52.27
2022-10-07T06:40:04.949Z,51.49
2022-10-07T06:42:36.915Z,51.03
2022-10-07T06:45:19.685Z,50.11
2022-10-07T06:47:52.353Z,49.04
2022-10-07T06:50:23.288Z,48.00
2022-10-07T06:52:56.538Z,47.62
2022-10-07T06:55:27.686Z,47.09
2022-10-07T06:57:58.636Z,45.88
2022-10-07T07:00:30.237Z,45.04
2022-10-07T07:03:03.003Z,44.30
2022-10-07T07:05:41.330Z,44.49
2022-10-07T07:08:19.219Z,43.39
2022-10-07T07:10:50.180Z,42.00
2022-10-07T07:13:21.523Z,40.91
2022-10-07T07:15:58.731Z,40.63
2022-10-07T07:18:31.373Z,41.01
2022-10-07T07:21:07.949Z,40.79
2022-10-07T07:23:42.052Z,41.22
2022-10-07T07:26:12.530Z,40.34
2022-10-07T07:28:43.418Z,39.76
2022-10-07T07:31:15.777Z,39.37
2022-10-07T07:33:52.475Z,38.62
2022-10-07T07:36:26.230Z,37.90
2022-10-07T07:39:07.400Z,37.49
2022-10-07T07:41:41.815Z,36.90
2022-10-07T07:44:15.976Z,35.97
2022-10-07T07:46:49.383Z,34.77
2022-10-07T07:49:20.013Z,35.11
2022-10-07T07:51:51.017Z,35.09
2022-10-07T07:54:31.671Z,35.16
2022-10-07T07:57:02.127Z,34.84
2022-10-07T07:59:34.752Z,35.17
2022-10-07T08:02:05.347Z,35.12
2022-10-07T08:04:36.686Z,33.89
2022-10-07T08:07:07.934Z,33.95
2022-10-07T08:09:40.997Z,33.94
2022-10-07T08:12:12.142Z,33.70
2022-10-07T08:14:43.450Z,33.23
2022-10-07T08:17:15.843Z,33.50
2022-10-07T08:19:46.642Z,33.61
2022-10-07T08:22:17.950Z,33.79
2022-10-07T08:24:54.376Z,34.03
2022-10-07T08:27:27.060Z,34.12
2022-10-07T08:29:57.524Z,34.16
2022-10-07T08:32:28.151Z,34.14
2022-10-07T08:34:58.542Z,34.20
2022-10-07T08:37:29.152Z,34.61
2022-10-07T08:40:02.685Z,34.46
2022-10-07T08:42:40.453Z,34.54
2022-10-07T08:45:22.622Z,34.61
2022-10-07T08:47:54.842Z,35.24
2022-10-07T08:50:32.649Z,35.63
2022-10-07T08:53:06.260Z,35.73
2022-10-07T08:55:44.087Z,35.41
2022-10-07T08:58:43.510Z,35.56
2022-10-07T09:01:28.351Z,35.69
2022-10-07T09:04:10.793Z,36.29
2022-10-07T09:06:45.233Z,36.46
2022-10-07T09:09:20.988Z,35.86
2022-10-07T09:11:55.742Z,36.36
2022-10-07T09:14:31.270Z,36.77
2022-10-07T09:17:07.015Z,36.73
2022-10-07T09:19:42.846Z,37.02
2022-10-07T09:22:21.957Z,36.28
2022-10-07T09:24:56.190Z,36.98
2022-10-07T09:27:29.939Z,36.60
2022-10-07T09:30:00.419Z,36.77
2022-10-07T09:32:31.180Z,35.84
2022-10-07T09:35:03.497Z,35.83
2022-10-07T09:37:34.354Z,34.92
2022-10-07T09:40:24.169Z,33.29
2022-10-07T09:42:58.129Z,31.32
2022-10-07T09:45:31.417Z,31.47
2022-10-07T09:48:07.797Z,30.54
2022-10-07T09:50:41.279Z,30.53
2022-10-07T09:53:22.106Z,29.51
2022-10-07T09:55:54.483Z,29.71
2022-10-07T09:58:29.416Z,29.81
2022-10-07T10:01:00.042Z,29.07
2022-10-07T10:03:33.885Z,30.76
2022-10-07T10:06:06.544Z,30.69
2022-10-07T10:08:40.550Z,30.58
2022-10-07T10:11:28.416Z,30.87
2022-10-07T10:14:01.553Z,31.78
2022-10-07T10:16:37.677Z,32.01
2022-10-07T10:19:24.438Z,32.67
2022-10-07T10:21:57.136Z,33.19
2022-10-07T10:24:40.578Z,33.75
2022-10-07T10:27:19.219Z,33.75
2022-10-07T10:29:59.838Z,33.38
2022-10-07T10:32:52.746Z,33.24
2022-10-07T10:35:28.116Z,33.51
2022-10-07T10:38:29.797Z,33.47
2022-10-07T10:41:09.687Z,34.00
2022-10-07T10:43:54.341Z,33.97
2022-10-07T10:46:41.886Z,34.26
2022-10-07T10:49:26.242Z,33.51
2022-10-07T10:52:14.252Z,32.16
2022-10-07T10:54:59.454Z,32.62
2022-10-07T10:57:40.592Z,32.59
2022-10-07T11:00:15.716Z,32.94
2022-10-07T11:03:09.475Z,31.46
2022-10-07T11:05:42.735Z,31.42
2022-10-07T11:08:17.737Z,32.04
2022-10-07T11:10:53.439Z,31.49
2022-10-07T11:13:37.104Z,29.44
2022-10-07T11:16:11.760Z,30.09
2022-10-07T11:18:50.020Z,27.53
2022-10-07T11:21:27.189Z,28.96
2022-10-07T11:24:04.379Z,29.13
2022-10-07T11:26:41.146Z,28.84
2022-10-07T11:29:25.299Z,28.30
2022-10-07T11:32:05.084Z,29.09
2022-10-07T11:34:49.899Z,28.69
2022-10-07T11:37:32.148Z,28.38
2022-10-07T11:40:02.717Z,29.04
2022-10-07T11:42:40.557Z,28.53
2022-10-07T11:45:16.843Z,28.38
2022-10-07T11:47:51.980Z,28.27
2022-10-07T11:50:29.596Z,28.28
2022-10-07T11:53:06.487Z,28.67
2022-10-07T11:55:42.518Z,28.65
2022-10-07T11:58:26.808Z,27.92
2022-10-07T12:01:28.749Z,28.10
2022-10-07T12:04:25.122Z,27.38
2022-10-07T12:07:28.525Z,26.48
2022-10-07T12:10:22.137Z,26.86
2022-10-07T12:12:55.283Z,27.09
2022-10-07T12:15:42.552Z,25.58
2022-10-07T12:18:31.522Z,26.08
2022-10-07T12:21:11.749Z,26.61
2022-10-07T12:23:45.798Z,27.50
2022-10-07T12:26:53.722Z,28.32
2022-10-07T12:29:30.998Z,27.81
2022-10-07T12:32:01.819Z,27.88
2022-10-07T12:34:39.842Z,27.50
2022-10-07T12:37:55.767Z,27.99
2022-10-07T12:40:32.963Z,27.95
2022-10-07T12:43:28.406Z,27.76
2022-10-07T12:45:59.572Z,28.31
2022-10-07T12:48:35.363Z,28.31
2022-10-07T12:51:08.277Z,28.55
2022-10-07T12:53:45.040Z,28.69
2022-10-07T12:56:22.523Z,28.38
2022-10-07T12:59:24.952Z,27.80
2022-10-07T13:02:16.294Z,28.60
2022-10-07T13:05:10.233Z,29.30
2022-10-07T13:08:15.651Z,29.81
2022-10-07T13:11:17.150Z,30.17
2022-10-07T13:13:53.151Z,30.31
2022-10-07T13:16:34.279Z,30.74
2022-10-07T13:19:14.402Z,31.14
2022-10-07T13:21:49.903Z,31.00
2022-10-07T13:24:27.058Z,30.92
2022-10-07T13:26:58.508Z,31.11
2022-10-07T13:29:33.174Z,31.53
2022-10-07T13:32:16.326Z,31.82
2022-10-07T13:34:48.419Z,31.54
2022-10-07T13:37:37.831Z,32.30
2022-10-07T13:40:24.182Z,32.29
2022-10-07T13:42:59.364Z,32.35
2022-10-07T13:45:32.438Z,32.58
2022-10-07T13:48:05.658Z,32.87
2022-10-07T13:50:38.267Z,32.94
2022-10-07T13:53:08.676Z,32.80
2022-10-07T13:55:39.427Z,33.12
2022-10-07T13:58:09.991Z,33.19
2022-10-07T14:00:47.483Z,33.48
2022-10-07T14:03:21.658Z,33.51
2022-10-07T14:05:53.914Z,33.77
2022-10-07T14:08:28.161Z,33.74
2022-10-07T14:11:03.697Z,34.10
2022-10-07T14:13:38.071Z,34.16
2022-10-07T14:16:09.112Z,34.23
2022-10-07T14:18:46.912Z,33.90
2022-10-07T14:21:19.046Z,33.71
2022-10-07T14:23:50.052Z,34.24
2022-10-07T14:26:20.745Z,33.91
2022-10-07T14:28:51.432Z,34.48
2022-10-07T14:31:36.193Z,34.64
2022-10-07T14:34:31.407Z,34.70
2022-10-07T14:37:08.358Z,34.96
2022-10-07T14:39:41.030Z,35.30
2022-10-07T14:42:16.424Z,35.60
2022-10-07T14:44:47.651Z,35.77
2022-10-07T14:47:21.264Z,36.24
2022-10-07T14:49:55.667Z,36.58
2022-10-07T14:52:28.955Z,36.75
2022-10-07T14:55:01.711Z,36.99
2022-10-07T14:57:34.330Z,37.08
2022-10-07T15:00:04.952Z,36.98
2022-10-07T15:02:35.427Z,37.71
2022-10-07T15:05:09.575Z,37.80
2022-10-07T15:07:40.004Z,37.94
2022-10-07T15:10:19.553Z,37.95
2022-10-07T15:12:50.479Z,38.30
2022-10-07T15:15:21.505Z,38.58
2022-10-07T15:17:52.169Z,38.71
2022-10-07T15:20:25.327Z,39.04
2022-10-07T15:22:57.077Z,38.97
2022-10-07T15:25:27.668Z,39.55
2022-10-07T15:27:58.254Z,39.76
2022-10-07T15:30:29.392Z,39.73
2022-10-07T15:33:00.830Z,39.81
2022-10-07T15:35:36.511Z,40.48
2022-10-07T15:38:07.012Z,40.69
2022-10-07T15:40:37.618Z,40.66
2022-10-07T15:43:08.058Z,40.45
2022-10-07T15:45:38.690Z,40.83
2022-10-07T15:48:09.113Z,41.09
2022-10-07T15:50:42.270Z,41.32
2022-10-07T15:53:14.794Z,41.37
2022-10-07T15:55:52.356Z,41.56
2022-10-07T15:58:24.441Z,41.57
2022-10-07T16:01:02.713Z,42.02
2022-10-07T16:03:39.954Z,42.06
2022-10-07T16:06:16.921Z,42.61
2022-10-07T16:08:47.642Z,42.72
2022-10-07T16:11:18.872Z,42.89
2022-10-07T16:13:51.023Z,43.45
2022-10-07T16:16:23.788Z,43.65
2022-10-07T16:18:56.962Z,43.92
2022-10-07T16:21:32.030Z,44.03
2022-10-07T16:24:06.893Z,44.26
2022-10-07T16:26:38.676Z,45.03
2022-10-07T16:29:22.766Z,45.97
2022-10-07T16:31:58.174Z,53.82
2022-10-07T16:34:30.636Z,59.44
2022-10-07T16:37:03.813Z,61.84
2022-10-07T16:39:34.801Z,62.46
2022-10-07T16:42:05.289Z,60.61
2022-10-07T16:44:36.087Z,60.15
2022-10-07T16:47:06.549Z,58.03
2022-10-07T16:49:37.082Z,62.56
2022-10-07T16:52:11.076Z,65.10
2022-10-07T16:54:42.020Z,65.58
2022-10-07T16:57:12.516Z,66.37
2022-10-07T16:59:43.399Z,67.25
2022-10-07T17:02:13.819Z,68.56
2022-10-07T17:04:44.415Z,67.09
2022-10-07T17:07:17.615Z,66.48
2022-10-07T17:09:48.172Z,66.25
2022-10-07T17:12:18.714Z,66.52
2022-10-07T17:14:49.329Z,66.24
2022-10-07T17:17:19.794Z,66.84
2022-10-07T17:19:53.472Z,66.70
2022-10-07T17:22:26.700Z,66.91
2022-10-07T17:24:57.394Z,67.45
2022-10-07T17:27:27.925Z,67.15
2022-10-07T17:29:58.437Z,67.78
2022-10-07T17:32:29.640Z,67.12
2022-10-07T17:35:00.108Z,67.64
2022-10-07T17:37:34.052Z,67.68
2022-10-07T17:40:04.574Z,67.91
2022-10-07T17:42:35.156Z,67.92
2022-10-07T17:45:05.773Z,68.37
2022-10-07T17:47:36.617Z,68.61
2022-10-07T17:50:07.673Z,68.95
2022-10-07T17:52:40.721Z,69.04
2022-10-07T17:55:13.613Z,68.84
2022-10-07T17:57:44.374Z,69.33
2022-10-07T18:00:15.931Z,69.80
2022-10-07T18:02:46.677Z,70.17
2022-10-07T18:05:19.847Z,70.17
2022-10-07T18:07:52.882Z,70.82
2022-10-07T18:10:23.365Z,69.80
2022-10-07T18:13:06.101Z,64.59
2022-10-07T18:15:36.583Z,68.63
2022-10-07T18:18:07.287Z,70.91
2022-10-07T18:20:41.738Z,73.11
2022-10-07T18:23:14.814Z,72.73
2022-10-07T18:25:47.436Z,72.95
2022-10-07T18:28:17.931Z,72.93
2022-10-07T18:30:48.395Z,73.77
2022-10-07T18:33:18.861Z,73.71
2022-10-07T18:35:49.352Z,73.89
2022-10-07T18:38:22.453Z,73.99
2022-10-07T18:40:52.975Z,73.45
2022-10-07T18:43:23.393Z,73.25
2022-10-07T18:46:01.559Z,66.31
2022-10-07T18:48:33.096Z,70.66
2022-10-07T18:51:04.799Z,73.71
2022-10-07T18:53:40.155Z,80.76
2022-10-07T18:56:11.392Z,71.64
2022-10-07T18:58:44.450Z,70.36
2022-10-07T19:01:17.285Z,74.09
2022-10-07T19:03:49.068Z,74.79
2022-10-07T19:06:21.534Z,74.75
2022-10-07T19:08:56.275Z,75.17
2022-10-07T19:11:27.117Z,67.28
2022-10-07T19:13:58.304Z,71.40
2022-10-07T19:16:34.675Z,77.55
2022-10-07T19:19:06.921Z,79.00
2022-10-07T19:21:38.153Z,76.27
2022-10-07T19:24:11.256Z,74.48
2022-10-07T19:26:45.360Z,73.66
2022-10-07T19:29:16.844Z,72.46
2022-10-07T19:31:50.010Z,71.68
2022-10-07T19:34:22.327Z,70.88
2022-10-07T19:36:53.956Z,69.97
2022-10-07T19:39:27.220Z,69.35
2022-10-07T19:41:57.693Z,68.65
2022-10-07T19:44:28.192Z,68.01
2022-10-07T19:46:58.655Z,67.24
2022-10-07T19:49:29.148Z,67.00
2022-10-07T19:51:59.631Z,66.80
2022-10-07T19:54:36.060Z,66.23
2022-10-07T19:57:06.593Z,65.84
2022-10-07T19:59:37.325Z,65.45
2022-10-07T20:02:08.675Z,65.29
2022-10-07T20:04:41.642Z,65.04
2022-10-07T20:07:12.136Z,64.81
2022-10-07T20:09:45.197Z,64.44
2022-10-07T20:12:16.630Z,64.36
2022-10-07T20:14:47.029Z,64.17
2022-10-07T20:17:17.996Z,64.22
2022-10-07T20:19:48.422Z,64.05
2022-10-07T20:22:19.026Z,63.99
2022-10-07T20:24:52.128Z,64.07
2022-10-07T20:27:22.575Z,63.88
2022-10-07T20:30:03.338Z,63.69
2022-10-07T20:32:35.748Z,63.79
2022-10-07T20:35:10.031Z,63.61
2022-10-07T20:37:40.519Z,63.84
2022-10-07T20:40:26.515Z,63.70
2022-10-07T20:42:58.683Z,63.71
2022-10-07T20:45:29.172Z,63.63
2022-10-07T20:48:01.545Z,63.96
2022-10-07T20:50:32.026Z,63.82
2022-10-07T20:53:02.577Z,64.17
2022-10-07T20:55:39.112Z,64.22
2022-10-07T20:58:09.654Z,64.22
2022-10-07T21:00:40.137Z,64.12
2022-10-07T21:03:10.589Z,64.13
2022-10-07T21:05:40.966Z,64.03
2022-10-07T21:08:11.428Z,64.16
2022-10-07T21:10:44.472Z,64.38
2022-10-07T21:13:15.330Z,64.45
2022-10-07T21:15:45.790Z,64.18
2022-10-07T21:18:17.376Z,64.11
2022-10-07T21:20:56.763Z,64.50
2022-10-07T21:23:29.531Z,64.22
2022-10-07T21:26:04.864Z,64.30
2022-10-07T21:28:35.334Z,64.87
2022-10-07T21:31:08.675Z,64.58
2022-10-07T21:33:40.822Z,64.21
2022-10-07T21:36:16.026Z,64.27
2022-10-07T21:38:47.558Z,64.35
2022-10-07T21:41:22.724Z,64.33
2022-10-07T21:43:54.334Z,64.07
2022-10-07T21:46:26.342Z,64.42
2022-10-07T21:48:57.327Z,64.43
2022-10-07T21:51:29.851Z,64.34
2022-10-07T21:54:01.148Z,64.42
2022-10-07T21:56:35.525Z,64.49
2022-10-07T21:59:06.271Z,64.66
2022-10-07T22:01:36.941Z,64.40
2022-10-07T22:04:08.256Z,64.59
2022-10-07T22:06:51.718Z,64.76
2022-10-07T22:09:22.919Z,64.69
2022-10-07T22:11:55.904Z,64.80
2022-10-07T22:14:27.825Z,65.01
2022-10-07T22:16:58.395Z,64.88
2022-10-07T22:19:28.966Z,65.06
2022-10-07T22:21:59.366Z,65.22
2022-10-07T22:24:29.983Z,65.43
2022-10-07T22:27:04.668Z,65.51
2022-10-07T22:29:35.339Z,65.37
2022-10-07T22:32:05.748Z,65.63
2022-10-07T22:34:48.562Z,65.54
2022-10-07T22:37:18.989Z,65.68
2022-10-07T22:39:49.437Z,65.96
2022-10-07T22:42:22.758Z,65.73
2022-10-07T22:44:53.155Z,65.96
2022-10-07T22:47:23.662Z,65.94
2022-10-07T22:49:55.447Z,65.83
2022-10-07T22:52:26.148Z,66.11
2022-10-07T22:54:56.610Z,66.19
2022-10-07T22:57:29.787Z,66.19
2022-10-07T23:00:00.908Z,66.05
2022-10-07T23:02:31.567Z,66.03
2022-10-07T23:05:03.272Z,66.44
2022-10-07T23:07:34.077Z,66.23
2022-10-07T23:10:04.844Z,66.15
2022-10-07T23:12:38.142Z,66.43
2022-10-07T23:15:09.762Z,66.22
2022-10-07T23:17:40.480Z,66.33
2022-10-07T23:20:11.675Z,66.29
2022-10-07T23:22:42.845Z,64.36
2022-10-07T23:25:13.412Z,63.94
2022-10-07T23:27:46.491Z,67.46
2022-10-07T23:30:17.107Z,72.83
2022-10-07T23:32:48.981Z,74.54
2022-10-07T23:35:19.776Z,77.29
2022-10-07T23:37:50.213Z,78.00
2022-10-07T23:40:20.705Z,78.05
2022-10-07T23:42:53.696Z,78.95
2022-10-07T23:45:24.079Z,79.19
2022-10-07T23:47:54.468Z,79.73
2022-10-07T23:50:24.898Z,81.33
2022-10-07T23:52:55.447Z,82.91
2022-10-07T23:55:25.994Z,83.01
2022-10-07T23:57:59.142Z,82.83
